Time;durP1;ratioP1;P1;durP2;ratioP2;P2;SDS_P1;SDS_P2;PMS_P1;PMS_P2;Temp;Humidity;BMP_temperature;BMP_pressure;BME280_temperature;BME280_humidity;BME280_pressure;Samples;Min_cycle;Max_cycle;Signal;HPM_P1;HPM_P2
2021/10/20 00:01:43;;;;;;;10.97;8.13;;;16.20;99.90;;;;;;6240279;22;20215;-89
2021/10/20 00:04:09;;;;;;;10.57;6.90;;;16.10;99.90;;;;;;6240316;22;20193;-89
2021/10/20 00:06:35;;;;;;;11.50;7.30;;;16.20;99.90;;;;;;6239013;22;20208;-88
2021/10/20 00:09:01;;;;;;;14.90;7.47;;;16.10;99.90;;;;;;6215627;22;20248;-88
2021/10/20 00:11:27;;;;;;;12.17;7.07;;;16.10;99.90;;;;;;6241688;22;20374;-89
2021/10/20 00:13:53;;;;;;;13.27;8.20;;;16.00;99.90;;;;;;6242586;22;20294;-89
2021/10/20 00:16:20;;;;;;;10.27;6.33;;;16.10;99.90;;;;;;6216907;22;20263;-89
2021/10/20 00:18:49;;;;;;;10.50;6.87;;;16.10;99.90;;;;;;6217206;22;20157;-88
2021/10/20 00:21:21;;;;;;;8.97;6.37;;;16.10;99.90;;;;;;6218836;22;20199;-87
2021/10/20 00:23:47;;;;;;;16.63;8.87;;;16.10;99.90;;;;;;6241740;22;20627;-88
2021/10/20 00:26:13;;;;;;;15.07;7.53;;;16.10;99.90;;;;;;6216813;22;20197;-88
2021/10/20 00:28:39;;;;;;;15.97;8.60;;;16.10;99.90;;;;;;6212927;22;20196;-89
2021/10/20 00:31:05;;;;;;;12.93;7.47;;;16.00;99.90;;;;;;6213616;22;20198;-88
2021/10/20 00:33:30;;;;;;;15.23;7.63;;;16.00;99.90;;;;;;6239727;22;20152;-89
2021/10/20 00:35:56;;;;;;;11.37;7.37;;;16.00;99.90;;;;;;6189124;22;21020;-88
2021/10/20 00:38:22;;;;;;;17.17;8.50;;;16.00;99.90;;;;;;6214464;22;20188;-91
2021/10/20 00:40:50;;;;;;;15.27;8.40;;;16.00;99.90;;;;;;6240485;22;20234;-90
2021/10/20 00:43:19;;;;;;;14.50;7.30;;;16.00;99.90;;;;;;6267634;22;20194;-88
2021/10/20 00:45:44;;;;;;;13.17;8.33;;;16.00;99.90;;;;;;6241221;22;20166;-89
2021/10/20 00:48:10;;;;;;;10.17;7.37;;;16.00;99.90;;;;;;6242578;22;20161;-89
2021/10/20 00:50:36;;;;;;;14.60;8.07;;;16.00;99.90;;;;;;6216575;22;20207;-89
2021/10/20 00:53:02;;;;;;;12.97;7.57;;;16.00;99.90;;;;;;6241876;22;20247;-89
2021/10/20 00:55:29;;;;;;;15.83;8.50;;;16.00;99.90;;;;;;6240744;22;20467;-90
2021/10/20 00:57:55;;;;;;;16.27;8.37;;;16.00;99.90;;;;;;6236834;22;20432;-90
2021/10/20 01:00:21;;;;;;;12.87;7.83;;;16.00;99.90;;;;;;6237974;22;20191;-91
2021/10/20 01:02:47;;;;;;;15.93;7.97;;;16.00;99.90;;;;;;6241635;22;20188;-89
2021/10/20 01:05:13;;;;;;;11.07;6.87;;;16.00;99.90;;;;;;6216350;22;20223;-91
2021/10/20 01:07:40;;;;;;;14.93;8.80;;;15.90;99.90;;;;;;6242018;22;20304;-89
2021/10/20 01:10:09;;;;;;;15.73;8.57;;;16.00;99.90;;;;;;6216512;22;20949;-87
2021/10/20 01:12:35;;;;;;;13.97;7.60;;;16.00;99.90;;;;;;6268299;22;20596;-90
2021/10/20 01:15:06;;;;;;;9.80;6.60;;;16.00;99.90;;;;;;6242984;22;20168;-88
2021/10/20 01:17:32;;;;;;;11.93;8.03;;;16.00;99.90;;;;;;6242148;22;20207;-89
2021/10/20 01:20:00;;;;;;;10.73;7.33;;;16.00;99.90;;;;;;6241845;22;20192;-90
2021/10/20 01:22:26;;;;;;;13.07;8.03;;;16.10;99.90;;;;;;6268103;22;20195;-89
2021/10/20 01:24:53;;;;;;;8.10;5.10;;;16.00;99.90;;;;;;6216652;22;20164;-90
2021/10/20 01:27:18;;;;;;;12.60;7.87;;;16.00;99.90;;;;;;6269741;22;20206;-90
2021/10/20 01:29:44;;;;;;;12.83;7.50;;;16.10;99.90;;;;;;6241897;22;20193;-90
2021/10/20 01:32:10;;;;;;;12.80;7.10;;;16.10;99.90;;;;;;6268990;22;20199;-89
2021/10/20 01:34:36;;;;;;;17.03;8.17;;;16.10;99.90;;;;;;6242056;22;20231;-89
2021/10/20 01:37:04;;;;;;;15.07;7.87;;;16.10;99.90;;;;;;6242128;22;20998;-89
2021/10/20 01:39:30;;;;;;;18.37;8.67;;;16.10;99.90;;;;;;6268629;22;20203;-90
2021/10/20 01:41:56;;;;;;;9.43;6.83;;;16.10;99.90;;;;;;6241811;22;20204;-90
2021/10/20 01:44:22;;;;;;;12.73;7.40;;;16.00;99.90;;;;;;6241552;22;20303;-89
2021/10/20 01:46:49;;;;;;;14.20;7.70;;;16.00;99.90;;;;;;6268409;22;20196;-90
2021/10/20 01:49:15;;;;;;;9.37;7.40;;;16.00;99.90;;;;;;6241177;22;20188;-88
2021/10/20 01:51:40;;;;;;;11.43;6.00;;;16.00;99.90;;;;;;6267103;22;20157;-88
2021/10/20 01:54:07;;;;;;;13.23;7.17;;;16.00;99.90;;;;;;6216737;22;20152;-89
2021/10/20 01:56:34;;;;;;;8.93;5.17;;;16.00;99.90;;;;;;6214866;22;20279;-89
2021/10/20 01:58:59;;;;;;;12.10;6.63;;;16.00;99.90;;;;;;6241394;22;20192;-89
2021/10/20 02:01:25;;;;;;;11.57;6.30;;;16.00;99.90;;;;;;6241403;22;20532;-90
2021/10/20 02:03:51;;;;;;;10.97;6.00;;;16.00;99.90;;;;;;6240820;22;20155;-89
2021/10/20 02:06:19;;;;;;;10.30;6.83;;;15.90;99.90;;;;;;6242091;22;20196;-89
2021/10/20 02:08:46;;;;;;;8.10;5.40;;;15.90;99.90;;;;;;6267705;22;20200;-90
2021/10/20 02:11:12;;;;;;;7.70;4.63;;;15.90;99.90;;;;;;6216566;22;20200;-91
2021/10/20 02:13:39;;;;;;;9.03;6.40;;;15.90;99.90;;;;;;6216315;22;20208;-91
2021/10/20 02:16:05;;;;;;;11.80;6.53;;;15.90;99.90;;;;;;6216480;22;20189;-89
2021/10/20 02:18:31;;;;;;;11.87;5.87;;;15.90;99.90;;;;;;6268179;22;20926;-89
2021/10/20 02:20:57;;;;;;;8.37;6.00;;;15.90;99.90;;;;;;6215931;22;20208;-87
2021/10/20 02:23:23;;;;;;;4.93;3.63;;;15.90;99.90;;;;;;6216279;22;20246;-90
2021/10/20 02:25:49;;;;;;;9.40;5.87;;;15.90;99.90;;;;;;6241247;22;20197;-89
2021/10/20 02:28:15;;;;;;;10.83;5.83;;;15.80;99.90;;;;;;6215787;22;20195;-91
2021/10/20 02:30:41;;;;;;;6.27;5.00;;;15.80;99.90;;;;;;6240408;22;20608;-87
2021/10/20 02:33:09;;;;;;;9.53;6.40;;;15.80;99.90;;;;;;6267927;22;20153;-90
2021/10/20 02:35:35;;;;;;;5.37;4.30;;;15.80;99.90;;;;;;6267736;22;20707;-89
2021/10/20 02:38:01;;;;;;;7.57;5.50;;;15.70;99.90;;;;;;6241040;22;20216;-89
2021/10/20 02:40:26;;;;;;;10.40;6.57;;;15.80;99.90;;;;;;6215492;22;20239;-88
2021/10/20 02:42:52;;;;;;;9.23;5.63;;;15.80;99.90;;;;;;6267531;22;20197;-89
2021/10/20 02:45:18;;;;;;;9.13;5.63;;;15.80;99.90;;;;;;6268036;22;20619;-90
2021/10/20 02:47:44;;;;;;;9.00;5.60;;;15.80;99.90;;;;;;6267861;22;20206;-90
2021/10/20 02:50:10;;;;;;;9.87;6.10;;;15.80;99.90;;;;;;6240734;22;20580;-90
2021/10/20 02:52:37;;;;;;;11.67;6.20;;;15.80;99.90;;;;;;6267457;22;20568;-90
2021/10/20 02:55:04;;;;;;;8.87;5.47;;;15.70;99.90;;;;;;6267856;22;20188;-88
2021/10/20 02:57:30;;;;;;;10.47;6.27;;;15.70;99.90;;;;;;6216949;22;20168;-89
2021/10/20 02:59:57;;;;;;;9.37;5.87;;;15.70;99.90;;;;;;6189670;22;20196;-89
2021/10/20 03:02:23;;;;;;;7.33;3.90;;;15.60;99.90;;;;;;6267191;22;20200;-90
2021/10/20 03:04:49;;;;;;;9.30;5.57;;;15.60;99.90;;;;;;6240873;22;20192;-90
2021/10/20 03:07:15;;;;;;;9.27;5.17;;;15.60;99.90;;;;;;6240990;22;20212;-89
2021/10/20 03:09:41;;;;;;;7.67;6.17;;;15.60;99.90;;;;;;6240808;22;20216;-88
2021/10/20 03:12:07;;;;;;;9.20;5.37;;;15.60;99.90;;;;;;6216223;22;20157;-90
2021/10/20 03:14:33;;;;;;;6.93;4.70;;;15.60;99.90;;;;;;6237361;22;20207;-88
2021/10/20 03:16:58;;;;;;;10.10;5.87;;;15.50;99.90;;;;;;6236962;22;20577;-91
2021/10/20 03:19:24;;;;;;;10.10;5.50;;;15.50;99.90;;;;;;6211366;22;20184;-89
2021/10/20 03:21:50;;;;;;;8.43;5.90;;;15.50;99.90;;;;;;6211602;22;20188;-90
2021/10/20 03:24:16;;;;;;;9.57;5.67;;;15.50;99.90;;;;;;6214535;22;20595;-88
2021/10/20 03:26:41;;;;;;;10.00;5.40;;;15.50;99.90;;;;;;6240822;22;20670;-89
2021/10/20 03:29:07;;;;;;;9.70;5.17;;;15.50;99.90;;;;;;6215531;22;20256;-91
2021/10/20 03:31:33;;;;;;;10.30;5.83;;;15.50;99.90;;;;;;6215091;22;20246;-90
2021/10/20 03:33:59;;;;;;;9.93;5.90;;;15.50;99.90;;;;;;6190626;22;20394;-89
2021/10/20 03:36:25;;;;;;;8.73;5.37;;;15.40;99.90;;;;;;6215677;22;20363;-88
2021/10/20 03:38:51;;;;;;;9.30;5.37;;;15.40;99.90;;;;;;6215604;22;20197;-87
2021/10/20 03:41:17;;;;;;;9.93;5.87;;;15.40;99.90;;;;;;6240548;22;20508;-90
2021/10/20 03:43:43;;;;;;;8.83;5.63;;;15.40;99.90;;;;;;6267217;22;20663;-89
2021/10/20 03:46:09;;;;;;;9.43;5.80;;;15.40;99.90;;;;;;6240782;22;20197;-88
2021/10/20 03:48:35;;;;;;;14.87;6.63;;;15.40;99.90;;;;;;6240525;22;20160;-89
2021/10/20 03:51:01;;;;;;;11.00;5.70;;;15.40;99.90;;;;;;6268141;22;20964;-88
2021/10/20 03:53:26;;;;;;;11.40;5.87;;;15.40;99.90;;;;;;6241068;22;20219;-89
2021/10/20 03:55:52;;;;;;;10.97;5.77;;;15.40;99.90;;;;;;6190173;22;20197;-90
2021/10/20 03:58:18;;;;;;;10.00;6.63;;;15.30;99.90;;;;;;6215961;22;20861;-89
2021/10/20 04:00:45;;;;;;;14.83;6.83;;;15.30;99.90;;;;;;6215875;22;20199;-88
2021/10/20 04:03:10;;;;;;;10.03;6.23;;;15.30;99.90;;;;;;6215927;22;20156;-88
2021/10/20 04:05:36;;;;;;;13.50;6.70;;;15.30;99.90;;;;;;6267530;22;20230;-89
2021/10/20 04:08:02;;;;;;;11.10;6.67;;;15.30;99.90;;;;;;6240436;22;20918;-88
2021/10/20 04:10:28;;;;;;;10.90;6.57;;;15.20;99.90;;;;;;6241065;22;20264;-89
2021/10/20 04:12:55;;;;;;;10.20;6.57;;;15.30;99.90;;;;;;6240554;22;20195;-88
2021/10/20 04:15:23;;;;;;;10.87;6.47;;;15.30;99.90;;;;;;6240871;22;20778;-88
2021/10/20 04:17:48;;;;;;;14.70;6.77;;;15.30;99.90;;;;;;6267246;22;20200;-87
2021/10/20 04:20:17;;;;;;;13.03;6.57;;;15.30;99.90;;;;;;6216194;22;20209;-90
2021/10/20 04:22:44;;;;;;;13.20;7.40;;;15.30;99.90;;;;;;6265258;22;20200;-89
2021/10/20 04:25:11;;;;;;;8.23;6.13;;;15.30;99.90;;;;;;6237078;22;20678;-89
2021/10/20 04:27:37;;;;;;;12.17;7.17;;;15.30;99.90;;;;;;6264496;22;20155;-89
2021/10/20 04:30:06;;;;;;;13.67;6.47;;;15.30;99.90;;;;;;6238802;22;20232;-89
2021/10/20 04:32:31;;;;;;;9.77;6.17;;;15.30;99.90;;;;;;6266668;22;20246;-89
2021/10/20 04:34:57;;;;;;;14.87;7.60;;;15.30;99.90;;;;;;6240173;22;20482;-89
2021/10/20 04:37:25;;;;;;;15.43;8.07;;;15.30;99.90;;;;;;6216537;22;20207;-89
2021/10/20 04:39:57;;;;;;;9.20;5.27;;;15.30;99.90;;;;;;6241800;22;20596;-89
2021/10/20 04:42:24;;;;;;;12.80;6.43;;;15.40;99.90;;;;;;6218605;22;20161;-88
2021/10/20 04:44:50;;;;;;;17.03;8.60;;;15.40;99.90;;;;;;6216673;22;20196;-88
2021/10/20 04:47:16;;;;;;;13.17;7.67;;;15.40;99.90;;;;;;6217096;22;20196;-89
2021/10/20 04:49:43;;;;;;;13.57;7.10;;;15.40;99.90;;;;;;6268276;22;21092;-90
2021/10/20 04:52:09;;;;;;;12.40;6.63;;;15.40;99.90;;;;;;6216197;22;20216;-88
2021/10/20 04:54:35;;;;;;;10.13;7.47;;;15.30;99.90;;;;;;6242204;22;20665;-90
2021/10/20 04:57:01;;;;;;;9.80;5.30;;;15.30;99.90;;;;;;6216733;22;20160;-89
2021/10/20 04:59:31;;;;;;;9.60;6.97;;;15.30;99.90;;;;;;6241308;22;20925;-86
2021/10/20 05:01:57;;;;;;;10.87;6.70;;;15.30;99.90;;;;;;6213115;22;20205;-88
2021/10/20 05:04:23;;;;;;;13.73;5.93;;;15.30;99.90;;;;;;6241809;22;20199;-89
2021/10/20 05:06:49;;;;;;;13.83;8.30;;;15.30;99.90;;;;;;6215649;22;20401;-88
2021/10/20 05:09:15;;;;;;;14.50;6.77;;;15.20;99.90;;;;;;6242538;22;20172;-89
2021/10/20 05:11:41;;;;;;;11.27;7.10;;;15.20;99.90;;;;;;6239943;22;20287;-87
2021/10/20 05:14:07;;;;;;;10.47;6.57;;;15.20;99.90;;;;;;6215058;22;20881;-91
2021/10/20 05:16:32;;;;;;;10.80;6.50;;;15.20;99.90;;;;;;6240583;22;20221;-87
2021/10/20 05:18:58;;;;;;;15.17;7.67;;;15.10;99.90;;;;;;6215256;22;20975;-88
2021/10/20 05:21:24;;;;;;;16.40;7.73;;;15.10;99.90;;;;;;6241380;22;20212;-85
2021/10/20 05:23:51;;;;;;;13.50;7.47;;;15.10;99.90;;;;;;6189711;22;20683;-88
2021/10/20 05:26:20;;;;;;;16.97;8.53;;;15.10;99.90;;;;;;6238820;22;21017;-87
2021/10/20 05:28:46;;;;;;;13.23;7.17;;;15.00;99.90;;;;;;6238504;22;20207;-87
2021/10/20 05:31:12;;;;;;;13.50;6.73;;;15.00;99.90;;;;;;6189960;22;20192;-86
2021/10/20 05:33:38;;;;;;;12.30;8.17;;;15.00;99.90;;;;;;6240210;22;20716;-86
2021/10/20 05:36:04;;;;;;;13.13;7.57;;;15.00;99.90;;;;;;6240718;22;20165;-86
2021/10/20 05:38:31;;;;;;;14.03;7.77;;;15.00;99.90;;;;;;6240933;22;20362;-87
2021/10/20 05:40:56;;;;;;;13.93;6.37;;;15.00;99.90;;;;;;6265571;22;20215;-87
2021/10/20 05:43:23;;;;;;;15.23;8.93;;;15.00;99.90;;;;;;6241058;22;20188;-86
2021/10/20 05:45:49;;;;;;;22.33;8.57;;;15.00;99.90;;;;;;6215386;22;20214;-84
2021/10/20 05:48:15;;;;;;;12.97;8.13;;;15.00;99.90;;;;;;6215572;22;20359;-85
2021/10/20 05:50:44;;;;;;;13.60;8.03;;;15.00;99.90;;;;;;6215097;22;20568;-84
2021/10/20 05:53:10;;;;;;;15.33;8.40;;;15.00;99.90;;;;;;6215007;22;20258;-86
2021/10/20 05:55:37;;;;;;;14.77;7.50;;;14.90;99.90;;;;;;6266930;22;20976;-87
2021/10/20 05:58:06;;;;;;;15.30;8.07;;;14.90;99.90;;;;;;6240136;22;20188;-87
2021/10/20 06:00:32;;;;;;;17.13;8.10;;;14.90;99.90;;;;;;6241011;22;20854;-86
2021/10/20 06:02:58;;;;;;;20.27;8.37;;;14.90;99.90;;;;;;6239160;22;20191;-85
2021/10/20 06:05:23;;;;;;;15.67;9.37;;;14.90;99.90;;;;;;6240292;22;20200;-86
2021/10/20 06:07:50;;;;;;;11.13;7.00;;;14.90;99.90;;;;;;6188370;22;20210;-87
2021/10/20 06:10:16;;;;;;;14.83;7.87;;;15.00;99.90;;;;;;6214705;22;20204;-86
2021/10/20 06:12:43;;;;;;;12.60;7.37;;;15.10;99.90;;;;;;6263070;22;20214;-86
2021/10/20 06:15:09;;;;;;;12.80;7.03;;;15.10;99.90;;;;;;6237232;22;20157;-87
2021/10/20 06:17:36;;;;;;;13.80;8.07;;;15.10;99.90;;;;;;6236492;22;20197;-88
2021/10/20 06:20:04;;;;;;;17.33;8.70;;;15.10;99.90;;;;;;6236524;22;20266;-88
2021/10/20 06:22:30;;;;;;;16.33;8.23;;;15.20;99.90;;;;;;6235792;22;20196;-87
2021/10/20 06:24:55;;;;;;;18.30;9.70;;;15.30;99.90;;;;;;6235191;22;20199;-87
2021/10/20 06:27:21;;;;;;;13.80;7.77;;;15.30;99.90;;;;;;6213332;22;20157;-87
2021/10/20 06:29:47;;;;;;;15.93;8.33;;;15.40;99.90;;;;;;6214616;22;20196;-85
2021/10/20 06:32:13;;;;;;;21.07;8.83;;;15.50;99.90;;;;;;6238091;22;20204;-87
2021/10/20 06:34:38;;;;;;;17.83;11.23;;;15.60;99.90;;;;;;6214471;22;20192;-86
2021/10/20 06:37:04;;;;;;;16.10;7.73;;;15.60;99.90;;;;;;6212884;22;20193;-87
2021/10/20 06:39:30;;;;;;;15.13;7.37;;;15.60;99.90;;;;;;6267059;22;20218;-88
2021/10/20 06:41:56;;;;;;;16.77;6.63;;;15.70;99.90;;;;;;6265807;22;20214;-88
2021/10/20 06:44:22;;;;;;;14.33;7.57;;;15.70;99.90;;;;;;6240067;22;20683;-86
2021/10/20 06:46:48;;;;;;;16.83;9.60;;;15.70;99.90;;;;;;6213467;22;20359;-85
2021/10/20 06:49:14;;;;;;;21.70;9.83;;;15.70;99.90;;;;;;6266771;22;20569;-87
2021/10/20 06:51:41;;;;;;;11.87;8.20;;;15.70;99.90;;;;;;6266764;22;20252;-85
2021/10/20 06:54:07;;;;;;;16.13;8.80;;;15.80;99.90;;;;;;6215615;22;20167;-91
2021/10/20 06:56:32;;;;;;;15.83;8.40;;;15.80;99.90;;;;;;6240761;22;20193;-91
2021/10/20 06:58:58;;;;;;;15.93;8.97;;;15.80;99.90;;;;;;6214417;22;20197;-86
2021/10/20 07:01:24;;;;;;;11.60;6.47;;;15.90;99.90;;;;;;6239197;22;20947;-87
2021/10/20 07:03:50;;;;;;;11.97;6.67;;;15.90;99.90;;;;;;6238783;22;20168;-88
2021/10/20 07:06:15;;;;;;;12.87;7.40;;;15.90;99.90;;;;;;6189231;22;20643;-87
2021/10/20 07:08:41;;;;;;;15.60;7.47;;;15.90;99.90;;;;;;6212007;22;20201;-86
2021/10/20 07:11:07;;;;;;;19.80;7.63;;;15.90;99.90;;;;;;6211447;22;20222;-85
2021/10/20 07:13:32;;;;;;;6.83;4.70;;;15.90;99.90;;;;;;6211476;22;20189;-85
2021/10/20 07:15:58;;;;;;;15.53;7.47;;;15.90;99.90;;;;;;6211106;22;20246;-85
2021/10/20 07:18:27;;;;;;;14.83;6.50;;;15.90;99.90;;;;;;6264620;22;20169;-84
2021/10/20 07:20:53;;;;;;;17.00;7.90;;;15.90;99.90;;;;;;6237977;22;20287;-83
2021/10/20 07:23:19;;;;;;;11.57;6.17;;;15.90;99.90;;;;;;6212345;22;20230;-85
2021/10/20 07:25:45;;;;;;;17.53;7.03;;;15.90;99.90;;;;;;6213231;22;20969;-85
2021/10/20 07:28:10;;;;;;;14.07;6.20;;;15.90;99.90;;;;;;6237956;22;20184;-86
2021/10/20 07:30:37;;;;;;;19.77;8.27;;;15.90;99.90;;;;;;6214344;22;20933;-88
2021/10/20 07:33:03;;;;;;;13.40;6.73;;;15.90;99.90;;;;;;6240012;22;20156;-88
2021/10/20 07:35:29;;;;;;;21.40;6.97;;;15.90;99.90;;;;;;6239339;22;20271;-89
2021/10/20 07:37:55;;;;;;;8.47;4.77;;;15.90;99.90;;;;;;6265787;22;20227;-90
2021/10/20 07:40:20;;;;;;;12.17;7.77;;;15.90;99.90;;;;;;6214073;22;20604;-90
2021/10/20 07:42:46;;;;;;;15.73;7.87;;;15.80;99.90;;;;;;6239551;22;20229;-87
2021/10/20 07:45:15;;;;;;;10.33;5.43;;;15.80;99.90;;;;;;6239589;22;20161;-86
2021/10/20 07:47:45;;;;;;;16.87;7.57;;;15.80;99.90;;;;;;6236483;22;20947;-84
2021/10/20 07:50:11;;;;;;;14.73;6.63;;;15.80;99.90;;;;;;6263895;22;20231;-85
2021/10/20 07:52:39;;;;;;;10.17;5.63;;;15.80;99.90;;;;;;6213013;22;20193;-85
2021/10/20 07:55:06;;;;;;;14.00;7.33;;;15.80;99.90;;;;;;6212901;22;20192;-86
2021/10/20 07:57:33;;;;;;;9.03;4.50;;;15.90;99.90;;;;;;6238705;22;20197;-85
2021/10/20 07:59:59;;;;;;;15.33;7.37;;;15.80;99.90;;;;;;6237942;22;20180;-84
2021/10/20 08:02:25;;;;;;;15.47;8.13;;;15.80;99.90;;;;;;6237272;22;20301;-84
2021/10/20 08:04:50;;;;;;;12.30;6.50;;;15.80;99.90;;;;;;6212287;22;20204;-85
2021/10/20 08:07:16;;;;;;;15.83;6.17;;;15.90;99.90;;;;;;6237791;22;20212;-86
2021/10/20 08:09:42;;;;;;;10.07;5.70;;;15.90;99.90;;;;;;6213781;22;20351;-83
2021/10/20 08:12:08;;;;;;;10.90;4.87;;;16.00;99.90;;;;;;6213602;22;20596;-84
2021/10/20 08:14:40;;;;;;;13.10;6.57;;;16.10;99.90;;;;;;6211713;22;20207;-83
2021/10/20 08:17:06;;;;;;;9.70;5.20;;;16.10;99.90;;;;;;6238825;22;20207;-84
2021/10/20 08:19:32;;;;;;;11.80;6.50;;;16.10;99.90;;;;;;6212604;22;20196;-85
2021/10/20 08:21:57;;;;;;;11.13;6.10;;;16.20;99.90;;;;;;6237842;22;20712;-82
2021/10/20 08:24:23;;;;;;;10.77;5.80;;;16.40;99.90;;;;;;6212857;22;20246;-83
2021/10/20 08:26:49;;;;;;;7.77;4.87;;;16.40;99.90;;;;;;6212851;22;20281;-85
2021/10/20 08:29:15;;;;;;;15.33;6.40;;;16.50;99.90;;;;;;6212905;22;20192;-85
2021/10/20 08:31:41;;;;;;;10.73;5.93;;;16.60;99.90;;;;;;6265005;22;20203;-83
2021/10/20 08:34:06;;;;;;;14.10;7.27;;;16.50;99.90;;;;;;6212156;22;20189;-83
2021/10/20 08:36:32;;;;;;;18.10;7.23;;;16.60;99.90;;;;;;6264652;22;20161;-84
2021/10/20 08:38:58;;;;;;;9.57;6.00;;;16.50;99.90;;;;;;6265307;22;20188;-86
2021/10/20 08:41:24;;;;;;;8.30;5.73;;;16.60;99.90;;;;;;6186645;22;20207;-85
2021/10/20 08:43:51;;;;;;;9.63;5.03;;;16.60;99.90;;;;;;6238093;22;20280;-85
2021/10/20 08:46:22;;;;;;;8.77;5.30;;;16.60;99.90;;;;;;6238842;22;20189;-86
2021/10/20 08:48:49;;;;;;;13.93;5.23;;;16.70;99.90;;;;;;6266282;22;20156;-87
2021/10/20 08:51:18;;;;;;;6.70;3.40;;;16.80;99.90;;;;;;6238850;22;20193;-86
2021/10/20 08:53:43;;;;;;;5.97;4.30;;;16.70;99.90;;;;;;6239037;22;20295;-85
2021/10/20 08:56:13;;;;;;;8.80;5.90;;;16.60;99.90;;;;;;6188499;22;20271;-87
2021/10/20 08:58:39;;;;;;;11.77;5.77;;;16.60;99.90;;;;;;6190393;22;20208;-85
2021/10/20 09:01:05;;;;;;;11.80;5.77;;;16.60;99.90;;;;;;6238425;22;20196;-85
2021/10/20 09:03:31;;;;;;;14.53;5.03;;;16.50;99.90;;;;;;6189070;22;20156;-86
2021/10/20 09:05:57;;;;;;;9.80;5.03;;;16.50;99.90;;;;;;6212760;22;20283;-83
2021/10/20 09:08:23;;;;;;;13.57;4.90;;;16.50;99.90;;;;;;6188741;22;20204;-85
2021/10/20 09:10:49;;;;;;;8.10;4.53;;;16.50;99.90;;;;;;6213595;22;20201;-85
2021/10/20 09:13:15;;;;;;;9.27;5.73;;;16.40;99.90;;;;;;6264817;22;20184;-86
2021/10/20 09:15:41;;;;;;;10.63;5.33;;;16.50;99.90;;;;;;6264497;22;20231;-84
2021/10/20 09:18:11;;;;;;;7.40;5.40;;;16.50;99.90;;;;;;6237769;22;20153;-85
2021/10/20 09:20:42;;;;;;;9.67;6.53;;;16.40;99.90;;;;;;6262999;22;20215;-84
2021/10/20 09:23:08;;;;;;;8.47;4.80;;;16.30;99.90;;;;;;6268790;22;20196;-84
2021/10/20 09:25:33;;;;;;;10.93;5.43;;;16.20;99.90;;;;;;6265385;22;20254;-85
2021/10/20 09:28:00;;;;;;;10.53;5.87;;;16.10;99.90;;;;;;6261368;22;20650;-85
2021/10/20 09:30:29;;;;;;;12.33;7.50;;;16.10;99.90;;;;;;6185149;22;20167;-85
2021/10/20 09:32:56;;;;;;;9.60;4.33;;;16.10;99.90;;;;;;6261240;22;20188;-86
2021/10/20 09:35:21;;;;;;;9.93;6.17;;;16.00;99.90;;;;;;6262022;22;20192;-85
2021/10/20 09:37:47;;;;;;;8.57;5.13;;;16.00;99.90;;;;;;6211322;22;20517;-85
2021/10/20 09:40:14;;;;;;;6.97;4.17;;;16.00;99.90;;;;;;6210288;22;20794;-83
2021/10/20 09:42:48;;;;;;;9.77;5.50;;;15.90;99.90;;;;;;6236959;22;20235;-85
2021/10/20 09:45:16;;;;;;;9.83;6.23;;;15.90;99.90;;;;;;6237345;22;20148;-84
2021/10/20 09:47:42;;;;;;;9.70;5.83;;;15.90;99.90;;;;;;6264168;22;20231;-85
2021/10/20 09:50:10;;;;;;;9.60;6.10;;;15.90;99.90;;;;;;6212588;22;20196;-85
2021/10/20 09:52:53;;;;;;;8.70;5.10;;;16.00;99.90;;;;;;6264050;22;20580;-85
2021/10/20 09:55:27;;;;;;;8.60;6.00;;;16.00;99.90;;;;;;6236916;22;20212;-84
2021/10/20 09:58:04;;;;;;;10.07;6.87;;;16.00;99.90;;;;;;6237551;22;20229;-86
2021/10/20 10:00:30;;;;;;;12.47;5.23;;;16.00;99.90;;;;;;6238061;22;20180;-86
2021/10/20 10:02:57;;;;;;;8.03;5.23;;;16.00;99.90;;;;;;6263636;22;20279;-84
2021/10/20 10:05:23;;;;;;;8.00;5.70;;;16.10;99.90;;;;;;6211072;22;20910;-85
2021/10/20 10:07:50;;;;;;;9.77;5.20;;;16.10;99.90;;;;;;6263778;22;20683;-85
2021/10/20 10:10:16;;;;;;;10.33;5.73;;;16.10;99.90;;;;;;6213657;22;20196;-86
2021/10/20 10:12:44;;;;;;;14.03;6.13;;;16.00;99.90;;;;;;6189329;22;20164;-87
2021/10/20 10:15:12;;;;;;;12.50;8.23;;;16.00;99.90;;;;;;6239442;22;20568;-86
2021/10/20 10:17:40;;;;;;;11.83;9.10;;;16.00;99.90;;;;;;6214206;22;20200;-85
2021/10/20 10:20:09;;;;;;;16.87;9.83;;;16.10;99.90;;;;;;6239997;22;20968;-86
2021/10/20 10:22:53;;;;;;;10.80;8.63;;;16.00;99.90;;;;;;6240158;22;20207;-88
2021/10/20 10:25:33;;;;;;;14.73;8.13;;;16.10;99.90;;;;;;6240761;22;20444;-86
2021/10/20 10:28:08;;;;;;;27.70;11.90;;;16.10;99.90;;;;;;6240014;22;20196;-86
2021/10/20 10:30:50;;;;;;;14.10;7.87;;;16.10;99.90;;;;;;6267138;22;20199;-85
2021/10/20 10:33:18;;;;;;;12.43;7.87;;;16.20;99.90;;;;;;6240573;22;20165;-88
2021/10/20 10:35:44;;;;;;;20.90;15.23;;;16.20;99.90;;;;;;6215481;22;20259;-87
2021/10/20 10:38:10;;;;;;;8.60;6.60;;;16.20;99.90;;;;;;6240168;22;20197;-87
2021/10/20 10:40:36;;;;;;;26.50;15.47;;;16.20;99.90;;;;;;6240305;22;20291;-88
2021/10/20 10:43:07;;;;;;;12.30;9.23;;;16.10;99.90;;;;;;6266546;22;20531;-86
2021/10/20 10:45:33;;;;;;;11.37;8.40;;;16.20;99.90;;;;;;6239769;22;20157;-87
2021/10/20 10:48:07;;;;;;;10.23;7.60;;;16.10;99.90;;;;;;6240873;22;20215;-86
2021/10/20 10:50:53;;;;;;;9.90;7.47;;;16.10;99.90;;;;;;6239640;22;20207;-86
2021/10/20 10:53:34;;;;;;;10.97;7.17;;;16.10;99.90;;;;;;6239482;22;20643;-87
2021/10/20 10:56:02;;;;;;;11.37;7.60;;;16.00;99.90;;;;;;6240355;22;20938;-88
2021/10/20 10:58:28;;;;;;;9.77;7.53;;;16.10;99.90;;;;;;6239427;22;20198;-89
2021/10/20 11:00:54;;;;;;;6.97;5.03;;;16.10;99.90;;;;;;6239363;22;20207;-87
2021/10/20 11:03:23;;;;;;;7.70;5.63;;;15.90;99.90;;;;;;6214843;22;20236;-87
2021/10/20 11:05:54;;;;;;;7.60;6.33;;;15.80;99.90;;;;;;6238971;22;20219;-84
2021/10/20 11:08:21;;;;;;;7.23;5.50;;;15.80;99.90;;;;;;6265080;22;20214;-86
2021/10/20 11:10:48;;;;;;;10.50;5.77;;;15.80;99.90;;;;;;6264635;22;20666;-84
2021/10/20 11:13:16;;;;;;;6.03;5.10;;;15.80;99.90;;;;;;6211989;22;20211;-85
2021/10/20 11:15:43;;;;;;;8.13;5.50;;;15.80;99.90;;;;;;6238864;22;20259;-86
2021/10/20 11:18:09;;;;;;;11.87;5.97;;;15.90;99.90;;;;;;6214284;22;20168;-87
2021/10/20 11:20:37;;;;;;;9.83;4.73;;;16.00;99.90;;;;;;6236469;22;20205;-86
2021/10/20 11:23:09;;;;;;;6.93;3.27;;;16.00;99.90;;;;;;6264397;22;20848;-86
2021/10/20 11:25:39;;;;;;;3.73;2.00;;;15.90;99.90;;;;;;6238922;22;20205;-86
2021/10/20 11:28:06;;;;;;;3.43;2.40;;;15.80;99.90;;;;;;6264444;22;20192;-85
2021/10/20 11:30:35;;;;;;;5.17;2.33;;;15.80;99.90;;;;;;6239299;22;20156;-89
2021/10/20 11:33:05;;;;;;;5.03;2.37;;;15.80;99.90;;;;;;6265752;22;20187;-86
2021/10/20 11:35:31;;;;;;;3.63;1.70;;;15.80;99.90;;;;;;6216693;22;20216;-87
2021/10/20 11:38:09;;;;;;;5.13;2.83;;;15.80;99.90;;;;;;6215956;22;20304;-89
2021/10/20 11:40:40;;;;;;;10.57;3.03;;;15.90;99.90;;;;;;6240840;22;20546;-87
2021/10/20 11:43:20;;;;;;;6.13;2.90;;;15.90;99.90;;;;;;6242352;22;20899;-87
2021/10/20 11:45:47;;;;;;;12.43;3.13;;;15.90;99.90;;;;;;6242041;22;20175;-87
2021/10/20 11:48:20;;;;;;;4.93;3.13;;;16.00;99.90;;;;;;6268459;22;20165;-84
2021/10/20 11:50:51;;;;;;;6.77;3.23;;;16.10;99.90;;;;;;6268080;22;20226;-87
2021/10/20 11:53:17;;;;;;;3.70;2.03;;;16.20;99.90;;;;;;6267784;22;20200;-87
2021/10/20 11:55:45;;;;;;;7.70;3.97;;;16.40;99.90;;;;;;6239650;22;20196;-87
2021/10/20 11:58:22;;;;;;;18.33;4.27;;;16.50;99.90;;;;;;6240432;22;20192;-88
2021/10/20 12:01:04;;;;;;;6.07;3.07;;;16.70;99.90;;;;;;6248809;22;20184;-87
2021/10/20 12:03:39;;;;;;;8.13;2.90;;;16.80;99.90;;;;;;6242647;22;20145;-87
2021/10/20 12:06:08;;;;;;;5.97;3.80;;;16.90;99.90;;;;;;6216962;22;20184;-88
2021/10/20 12:08:36;;;;;;;9.20;4.17;;;17.00;99.90;;;;;;6240719;22;20211;-87
2021/10/20 12:11:02;;;;;;;9.73;3.63;;;17.10;99.90;;;;;;6191321;22;20302;-87
2021/10/20 12:13:28;;;;;;;8.30;3.73;;;17.20;99.90;;;;;;6241489;22;20192;-89
2021/10/20 12:15:56;;;;;;;11.13;3.20;;;17.30;99.90;;;;;;6218985;22;20196;-89
2021/10/20 12:18:24;;;;;;;7.47;2.33;;;17.30;99.90;;;;;;6242495;22;20188;-90
2021/10/20 12:20:57;;;;;;;5.60;3.30;;;17.40;99.90;;;;;;6242177;22;20220;-89
2021/10/20 12:23:31;;;;;;;5.73;2.20;;;17.50;99.90;;;;;;6216344;22;20207;-88
2021/10/20 12:25:56;;;;;;;8.30;3.37;;;17.50;99.90;;;;;;6269114;22;20735;-87
2021/10/20 12:28:24;;;;;;;3.73;2.17;;;17.50;99.90;;;;;;6189807;22;20315;-85
2021/10/20 12:30:50;;;;;;;7.73;2.50;;;17.50;99.90;;;;;;6240655;22;20156;-85
2021/10/20 12:33:20;;;;;;;8.13;3.53;;;17.50;99.90;;;;;;6240753;22;20854;-86
2021/10/20 12:35:47;;;;;;;6.23;3.17;;;17.50;99.90;;;;;;6239936;22;20203;-84
2021/10/20 12:38:14;;;;;;;5.10;2.23;;;17.50;99.90;;;;;;6215297;22;20235;-85
2021/10/20 12:40:40;;;;;;;8.67;2.47;;;17.50;99.90;;;;;;6239765;22;20291;-85